createdAt,value
2019-02-19T00:00:44.742Z,6.05
2019-02-19T00:03:30.805Z,5.87
2019-02-19T00:06:17.183Z,5.55
2019-02-19T00:09:05.585Z,5.72
2019-02-19T00:11:53.539Z,7.17
2019-02-19T00:14:39.801Z,5.95
2019-02-19T00:17:25.640Z,6.62
2019-02-19T00:20:12.076Z,7.05
2019-02-19T00:22:58.227Z,5.83
2019-02-19T00:25:44.168Z,5.20
2019-02-19T00:28:30.504Z,5.37
2019-02-19T00:31:16.769Z,6.35
2019-02-19T00:34:02.847Z,7.47
2019-02-19T00:36:50.048Z,6.83
2019-02-19T00:39:36.375Z,6.10
2019-02-19T00:42:22.327Z,5.37
2019-02-19T00:45:16.259Z,5.25
2019-02-19T00:47:56.211Z,5.50
2019-02-19T00:50:42.110Z,7.55
2019-02-19T00:53:28.390Z,5.05
2019-02-19T00:56:14.655Z,5.53
2019-02-19T00:59:01.182Z,5.53
2019-02-19T01:01:47.543Z,5.97
2019-02-19T01:04:34.014Z,6.67
2019-02-19T01:07:20.682Z,5.87
2019-02-19T01:10:07.288Z,5.30
2019-02-19T01:12:53.532Z,6.12
2019-02-19T01:15:39.835Z,5.90
2019-02-19T01:18:26.055Z,5.65
2019-02-19T01:21:12.316Z,5.70
2019-02-19T01:23:58.690Z,7.00
2019-02-19T01:26:44.963Z,5.70
2019-02-19T01:29:31.528Z,6.45
2019-02-19T01:32:17.789Z,5.22
2019-02-19T01:35:04.527Z,6.95
2019-02-19T01:37:51.159Z,5.65
2019-02-19T01:40:37.494Z,5.62
2019-02-19T01:43:23.621Z,6.87
2019-02-19T01:46:10.865Z,5.87
2019-02-19T01:48:57.035Z,5.75
2019-02-19T01:51:43.347Z,5.92
2019-02-19T01:54:29.749Z,7.90
2019-02-19T01:57:15.617Z,6.35
2019-02-19T02:00:01.961Z,6.20
2019-02-19T02:02:48.369Z,5.10
2019-02-19T02:05:34.619Z,6.15
2019-02-19T02:08:20.532Z,5.65
2019-02-19T02:11:06.753Z,6.65
2019-02-19T02:13:53.068Z,5.33
2019-02-19T02:16:38.912Z,5.33
2019-02-19T02:19:25.807Z,5.85
2019-02-19T02:22:12.136Z,5.67
2019-02-19T02:24:58.791Z,7.28
2019-02-19T02:27:44.554Z,5.67
2019-02-19T02:30:30.899Z,5.85
2019-02-19T02:33:17.309Z,6.22
2019-02-19T02:36:04.731Z,6.40
2019-02-19T02:38:50.807Z,6.05
2019-02-19T02:41:36.827Z,5.72
2019-02-19T02:44:23.253Z,5.67
2019-02-19T02:47:09.820Z,5.15
2019-02-19T02:49:56.153Z,5.28
2019-02-19T02:52:42.156Z,4.60
2019-02-19T02:55:28.583Z,5.80
2019-02-19T02:58:14.828Z,6.50
2019-02-19T03:01:00.700Z,6.45
2019-02-19T03:03:47.353Z,5.78
2019-02-19T03:07:05.373Z,5.65
2019-02-19T03:09:51.490Z,6.80
2019-02-19T03:12:37.593Z,5.90
2019-02-19T03:15:23.885Z,5.80
2019-02-19T03:18:10.157Z,5.78
2019-02-19T03:20:56.645Z,5.25
2019-02-19T03:23:42.888Z,6.65
2019-02-19T03:26:29.276Z,6.00
2019-02-19T03:29:15.651Z,4.72
2019-02-19T03:32:01.940Z,5.58
2019-02-19T03:34:48.373Z,6.00
2019-02-19T03:37:34.707Z,6.12
2019-02-19T03:40:20.848Z,7.05
2019-02-19T03:43:07.748Z,7.00
2019-02-19T03:45:54.057Z,5.60
2019-02-19T03:48:40.396Z,6.17
2019-02-19T03:51:26.760Z,5.47
2019-02-19T03:54:13.093Z,6.05
2019-02-19T03:56:59.421Z,6.65
2019-02-19T03:59:45.899Z,5.75
2019-02-19T04:02:32.056Z,6.75
2019-02-19T04:05:18.400Z,5.25
2019-02-19T04:08:04.864Z,5.87
2019-02-19T04:10:51.099Z,5.70
2019-02-19T04:13:37.432Z,5.95
2019-02-19T04:16:23.881Z,4.78
2019-02-19T04:19:10.045Z,6.58
2019-02-19T04:21:56.386Z,6.10
2019-02-19T04:24:42.811Z,5.42
2019-02-19T04:27:29.020Z,6.03
2019-02-19T04:30:15.504Z,5.90
2019-02-19T04:33:01.743Z,6.05
2019-02-19T04:35:47.988Z,6.65
2019-02-19T04:38:33.899Z,5.42
2019-02-19T04:41:20.076Z,6.25
2019-02-19T04:44:06.883Z,5.33
2019-02-19T04:46:53.323Z,7.30
2019-02-19T04:49:40.128Z,5.87
2019-02-19T04:52:26.523Z,6.47
2019-02-19T04:55:13.099Z,6.15
2019-02-19T04:57:59.342Z,4.60
2019-02-19T05:00:46.148Z,5.45
2019-02-19T05:03:32.528Z,5.65
2019-02-19T05:06:19.469Z,5.90
2019-02-19T05:09:05.643Z,5.72
2019-02-19T05:11:52.860Z,5.37
2019-02-19T05:14:39.015Z,6.80
2019-02-19T05:17:24.895Z,5.33
2019-02-19T05:20:11.260Z,4.72
2019-02-19T05:22:57.523Z,5.75
2019-02-19T05:25:43.282Z,4.90
2019-02-19T05:28:29.156Z,5.60
2019-02-19T05:31:15.527Z,5.37
2019-02-19T05:34:03.074Z,6.05
2019-02-19T05:36:49.332Z,6.00
2019-02-19T05:39:35.592Z,6.78
2019-02-19T05:42:22.019Z,5.87
2019-02-19T05:45:08.403Z,5.83
2019-02-19T05:47:54.686Z,5.90
2019-02-19T05:50:41.107Z,6.03
2019-02-19T05:53:26.975Z,5.42
2019-02-19T05:56:13.401Z,4.90
2019-02-19T05:58:59.751Z,5.97
2019-02-19T06:01:46.087Z,5.50
2019-02-19T06:04:32.368Z,6.50
2019-02-19T06:07:18.671Z,4.92
2019-02-19T06:10:05.912Z,5.42
2019-02-19T06:12:51.863Z,7.72
2019-02-19T06:15:37.691Z,5.08
2019-02-19T06:18:24.163Z,7.37
2019-02-19T06:21:10.118Z,6.12
2019-02-19T06:23:56.372Z,5.78
2019-02-19T06:26:42.652Z,7.35
2019-02-19T06:29:29.277Z,6.03
2019-02-19T06:32:15.476Z,7.80
2019-02-19T06:35:01.284Z,7.15
2019-02-19T06:37:47.740Z,8.15
2019-02-19T06:40:33.977Z,6.47
2019-02-19T06:43:20.255Z,11.55
2019-02-19T06:46:06.603Z,22.62
2019-02-19T06:48:52.459Z,26.68
2019-02-19T06:51:38.670Z,29.10
2019-02-19T06:54:26.064Z,28.17
2019-02-19T06:57:12.498Z,25.57
2019-02-19T06:59:58.826Z,32.88
2019-02-19T07:03:06.665Z,32.90
2019-02-19T07:05:53.710Z,33.48
2019-02-19T07:08:40.075Z,39.67
2019-02-19T07:11:26.378Z,83.47
2019-02-19T07:14:12.619Z,537.75
2019-02-19T07:16:58.431Z,567.65
2019-02-19T07:19:44.967Z,613.58
2019-02-19T07:22:31.164Z,558.80
2019-02-19T07:25:17.535Z,509.50
2019-02-19T07:28:03.971Z,516.40
2019-02-19T07:30:50.226Z,473.02
2019-02-19T07:33:36.599Z,441.62
2019-02-19T07:36:22.970Z,419.00
2019-02-19T07:39:09.288Z,401.37
2019-02-19T07:41:55.755Z,371.37
2019-02-19T07:44:42.020Z,341.42
2019-02-19T07:47:28.253Z,807.60
2019-02-19T07:50:14.022Z,677.02
2019-02-19T07:53:00.603Z,639.95
2019-02-19T07:55:46.872Z,592.20
2019-02-19T07:58:33.305Z,511.55
2019-02-19T08:01:19.545Z,540.58
2019-02-19T08:04:05.417Z,491.08
2019-02-19T08:06:51.873Z,460.97
2019-02-19T08:09:38.348Z,419.30
2019-02-19T08:12:26.243Z,400.85
2019-02-19T08:15:12.903Z,352.62
2019-02-19T08:17:59.244Z,672.25
2019-02-19T08:20:45.579Z,556.52
2019-02-19T08:23:31.967Z,616.48
2019-02-19T08:26:18.204Z,501.80
2019-02-19T08:29:13.475Z,516.08
2019-02-19T08:31:52.476Z,466.05
2019-02-19T08:34:38.232Z,656.95
2019-02-19T08:37:24.564Z,590.55
2019-02-19T08:40:10.966Z,583.38
2019-02-19T08:42:57.173Z,566.70
2019-02-19T08:45:43.530Z,510.82
2019-02-19T08:48:29.971Z,527.58
2019-02-19T08:51:16.170Z,590.95
2019-02-19T08:54:02.708Z,737.33
2019-02-19T08:56:48.856Z,738.30
2019-02-19T08:59:34.725Z,787.80
2019-02-19T09:02:21.147Z,738.65
2019-02-19T09:05:07.831Z,717.17
2019-02-19T09:07:54.135Z,694.13
2019-02-19T09:10:40.716Z,641.48
2019-02-19T09:13:26.951Z,613.80
2019-02-19T09:16:13.516Z,557.52
2019-02-19T09:18:59.936Z,530.33
2019-02-19T09:21:46.236Z,646.58
2019-02-19T09:24:32.578Z,798.30
2019-02-19T09:27:19.060Z,1007.10
2019-02-19T09:30:08.115Z,989.40
2019-02-19T09:32:54.143Z,1170.15
2019-02-19T09:35:40.679Z,1177.65
2019-02-19T09:38:26.447Z,1101.33
2019-02-19T09:41:12.779Z,1130.13
2019-02-19T09:43:59.313Z,1135.10
2019-02-19T09:46:45.487Z,1184.15
2019-02-19T09:49:31.430Z,1089.38
2019-02-19T09:52:17.718Z,959.47
2019-02-19T09:55:04.191Z,896.03
2019-02-19T09:57:50.568Z,985.28
2019-02-19T10:00:36.483Z,1200.22
2019-02-19T10:03:22.803Z,1257.60
2019-02-19T10:06:09.287Z,1299.70
2019-02-19T10:08:55.489Z,1264.93
2019-02-19T10:11:41.817Z,1563.23
2019-02-19T10:14:28.343Z,1607.53
2019-02-19T10:17:14.471Z,1413.03
2019-02-19T10:20:00.716Z,1313.65
2019-02-19T10:22:47.192Z,1196.50
2019-02-19T10:25:33.436Z,1154.30
2019-02-19T10:28:19.343Z,1058.80
2019-02-19T10:31:05.136Z,992.00
2019-02-19T10:33:51.409Z,824.73
2019-02-19T10:36:38.629Z,873.80
2019-02-19T10:39:25.191Z,920.80
2019-02-19T10:42:11.417Z,1067.43
2019-02-19T10:44:57.383Z,1020.65
2019-02-19T10:47:43.118Z,1023.70
2019-02-19T10:50:29.890Z,861.20
2019-02-19T10:53:16.266Z,783.60
2019-02-19T10:56:02.556Z,704.00
2019-02-19T10:58:48.829Z,611.40
2019-02-19T11:01:35.419Z,621.48
2019-02-19T11:04:21.615Z,542.53
2019-02-19T11:07:07.430Z,565.88
2019-02-19T11:09:53.777Z,485.50
2019-02-19T11:12:40.211Z,442.33
2019-02-19T11:15:26.020Z,424.92
2019-02-19T11:18:12.439Z,412.40
2019-02-19T11:20:58.712Z,373.43
2019-02-19T11:23:46.133Z,377.32
2019-02-19T11:26:32.380Z,290.68
2019-02-19T11:29:18.238Z,469.73
2019-02-19T11:32:04.789Z,600.48
2019-02-19T11:34:51.095Z,572.23
2019-02-19T11:37:37.505Z,617.58
2019-02-19T11:40:23.746Z,580.48
2019-02-19T11:43:09.995Z,747.95
2019-02-19T11:45:56.327Z,687.25
2019-02-19T11:48:42.689Z,675.20
2019-02-19T11:51:29.048Z,653.02
2019-02-19T11:54:15.526Z,608.07
2019-02-19T11:57:01.968Z,559.73
2019-02-19T11:59:47.721Z,653.17
2019-02-19T12:02:34.055Z,745.27
2019-02-19T12:05:20.142Z,1102.08
2019-02-19T12:08:06.163Z,1036.85
2019-02-19T12:10:52.595Z,1164.45
2019-02-19T12:13:38.937Z,1140.53
2019-02-19T12:16:25.271Z,1118.47
2019-02-19T12:19:11.695Z,1135.33
2019-02-19T12:21:58.004Z,1010.12
2019-02-19T12:24:44.400Z,928.45
2019-02-19T12:27:30.857Z,941.45
2019-02-19T12:30:17.127Z,1198.80
2019-02-19T12:33:02.971Z,1213.45
2019-02-19T12:35:49.292Z,1128.40
2019-02-19T12:38:35.477Z,1084.33
2019-02-19T12:41:22.495Z,1052.98
2019-02-19T12:44:08.764Z,1037.43
2019-02-19T12:46:54.587Z,935.73
2019-02-19T12:49:40.848Z,840.15
2019-02-19T12:52:27.503Z,769.88
2019-02-19T12:55:13.761Z,713.20
2019-02-19T12:58:00.271Z,702.88
2019-02-19T13:00:46.544Z,682.23
2019-02-19T13:03:32.856Z,627.37
2019-02-19T13:06:19.167Z,854.15
2019-02-19T13:09:05.867Z,1060.93
2019-02-19T13:11:53.193Z,1010.55
2019-02-19T13:14:39.711Z,1062.65
2019-02-19T13:17:26.948Z,1062.35
2019-02-19T13:20:13.455Z,971.57
2019-02-19T13:22:59.962Z,981.50
2019-02-19T13:25:46.260Z,920.60
2019-02-19T13:28:32.153Z,850.90
2019-02-19T13:31:18.606Z,776.10
2019-02-19T13:34:04.965Z,767.22
2019-02-19T13:36:51.372Z,705.52
2019-02-19T13:39:37.164Z,779.50
2019-02-19T13:42:23.976Z,1008.70
2019-02-19T13:45:11.151Z,906.60
2019-02-19T13:48:05.525Z,926.67
2019-02-19T13:50:44.919Z,868.50
2019-02-19T13:53:43.596Z,879.83
2019-02-19T13:56:29.864Z,826.13
2019-02-19T13:59:15.862Z,748.33
2019-02-19T14:02:02.336Z,724.10
2019-02-19T14:04:48.271Z,730.73
2019-02-19T14:07:34.515Z,707.10
2019-02-19T14:10:20.910Z,676.67
2019-02-19T14:13:07.133Z,703.00
2019-02-19T14:16:08.263Z,654.40
2019-02-19T14:19:00.398Z,640.33
2019-02-19T14:22:03.037Z,1400.78
2019-02-19T14:25:02.092Z,985.30
2019-02-19T14:28:07.880Z,935.30
2019-02-19T14:31:31.663Z,1291.88
2019-02-19T14:34:36.100Z,1198.30
2019-02-19T14:37:32.396Z,1452.75
2019-02-19T14:40:38.040Z,1403.75
2019-02-19T14:43:43.503Z,1310.83
2019-02-19T14:46:57.949Z,1207.15
2019-02-19T14:50:15.159Z,1275.98
2019-02-19T14:53:29.287Z,1255.50
2019-02-19T14:56:33.403Z,1147.28
2019-02-19T14:59:44.815Z,1084.68
2019-02-19T15:02:48.948Z,1033.75
2019-02-19T15:06:00.556Z,984.88
2019-02-19T15:09:19.511Z,941.77
2019-02-19T15:12:13.083Z,857.27
2019-02-19T15:15:34.083Z,962.33
2019-02-19T15:18:38.435Z,856.63
2019-02-19T15:21:43.101Z,773.15
2019-02-19T15:24:48.315Z,733.23
2019-02-19T15:27:43.804Z,676.35
2019-02-19T15:30:44.768Z,672.70
2019-02-19T15:33:50.345Z,636.47
2019-02-19T15:36:54.820Z,670.48
2019-02-19T15:40:06.287Z,663.17
2019-02-19T15:43:11.280Z,657.70
2019-02-19T15:46:16.600Z,686.58
2019-02-19T15:49:28.958Z,637.83
2019-02-19T15:52:43.789Z,609.25
2019-02-19T15:55:51.776Z,600.75
2019-02-19T15:58:48.868Z,543.30
2019-02-19T16:02:04.089Z,541.12
2019-02-19T16:05:19.335Z,489.52
2019-02-19T16:08:25.145Z,484.95
2019-02-19T16:11:31.016Z,436.70
2019-02-19T16:14:36.922Z,459.55
2019-02-19T16:17:41.113Z,408.38
2019-02-19T16:20:53.251Z,411.38
2019-02-19T16:23:59.165Z,347.85
2019-02-19T16:27:11.006Z,337.98
2019-02-19T16:30:25.300Z,294.25
2019-02-19T16:33:39.984Z,270.97
2019-02-19T16:36:44.156Z,267.68
2019-02-19T16:39:52.451Z,272.52
2019-02-19T16:42:58.355Z,243.52
2019-02-19T16:45:52.667Z,239.15
2019-02-19T16:48:54.383Z,232.55
2019-02-19T16:52:06.281Z,220.50
2019-02-19T16:55:00.373Z,183.40
2019-02-19T16:58:05.487Z,177.87
2019-02-19T17:01:07.484Z,202.87
2019-02-19T17:04:16.516Z,151.72
2019-02-19T17:07:22.245Z,156.70
2019-02-19T17:10:26.386Z,148.43
2019-02-19T17:13:20.927Z,116.25
2019-02-19T17:16:31.625Z,135.88
2019-02-19T17:19:35.311Z,131.65
2019-02-19T17:22:39.157Z,127.02
2019-02-19T17:25:38.124Z,102.27
2019-02-19T17:28:36.092Z,124.25
2019-02-19T17:31:44.323Z,109.00
2019-02-19T17:34:53.001Z,93.90
2019-02-19T17:38:14.445Z,102.38
2019-02-19T17:41:26.618Z,104.03
2019-02-19T17:44:47.067Z,74.27
2019-02-19T17:47:55.673Z,74.37
2019-02-19T17:50:49.704Z,72.35
2019-02-19T17:54:10.500Z,74.75
2019-02-19T17:57:25.237Z,65.85
2019-02-19T18:00:33.993Z,61.10
2019-02-19T18:03:42.130Z,54.88
2019-02-19T18:06:44.592Z,57.15
2019-02-19T18:09:40.605Z,52.13
2019-02-19T18:12:36.168Z,50.10
2019-02-19T18:15:50.052Z,56.55
2019-02-19T18:18:55.613Z,44.70
2019-02-19T18:21:42.007Z,46.13
2019-02-19T18:24:28.407Z,48.25
2019-02-19T18:27:16.564Z,35.92
2019-02-19T18:30:03.400Z,33.73
2019-02-19T18:32:51.569Z,41.33
2019-02-19T18:35:37.736Z,33.80
2019-02-19T18:38:24.727Z,36.35
2019-02-19T18:41:11.156Z,31.82
2019-02-19T18:43:56.951Z,32.73
2019-02-19T18:46:42.932Z,29.25
2019-02-19T18:49:28.636Z,26.97
2019-02-19T18:52:14.898Z,42.03
2019-02-19T18:55:01.329Z,33.25
2019-02-19T18:57:47.564Z,26.00
2019-02-19T19:00:33.818Z,31.23
2019-02-19T19:03:20.336Z,26.25
2019-02-19T19:06:06.565Z,20.60
2019-02-19T19:08:52.884Z,23.57
2019-02-19T19:11:38.880Z,19.62
2019-02-19T19:14:25.185Z,21.60
2019-02-19T19:17:11.670Z,15.75
2019-02-19T19:19:58.061Z,25.82
2019-02-19T19:22:44.452Z,22.87
2019-02-19T19:25:30.862Z,18.77
2019-02-19T19:28:17.163Z,16.50
2019-02-19T19:31:02.956Z,15.23
2019-02-19T19:33:49.484Z,20.05
2019-02-19T19:36:35.667Z,12.35
2019-02-19T19:39:21.946Z,15.38
2019-02-19T19:42:08.467Z,12.75
2019-02-19T19:44:54.700Z,8.63
2019-02-19T19:47:40.987Z,14.07
2019-02-19T19:50:27.754Z,11.10
2019-02-19T19:53:14.012Z,14.83
2019-02-19T19:56:00.482Z,8.30
2019-02-19T19:58:46.861Z,15.00
2019-02-19T20:01:33.122Z,11.05
2019-02-19T20:04:19.391Z,9.10
2019-02-19T20:07:06.828Z,8.98
2019-02-19T20:09:53.142Z,12.60
2019-02-19T20:12:39.925Z,9.28
2019-02-19T20:15:26.212Z,13.65
2019-02-19T20:18:12.505Z,8.85
2019-02-19T20:20:58.377Z,8.80
2019-02-19T20:23:44.724Z,7.65
2019-02-19T20:26:30.937Z,8.75
2019-02-19T20:29:17.408Z,8.10
2019-02-19T20:32:03.172Z,4.87
2019-02-19T20:34:50.645Z,7.03
2019-02-19T20:37:37.138Z,10.05
2019-02-19T20:40:23.320Z,6.67
2019-02-19T20:43:09.702Z,7.22
2019-02-19T20:45:56.250Z,8.63
2019-02-19T20:48:42.555Z,5.05
2019-02-19T20:51:36.192Z,7.42
2019-02-19T20:54:16.912Z,7.87
2019-02-19T20:57:03.305Z,5.70
2019-02-19T20:59:49.620Z,4.60
2019-02-19T21:02:36.239Z,5.28
2019-02-19T21:05:22.514Z,5.42
2019-02-19T21:08:08.974Z,5.90
2019-02-19T21:10:55.428Z,4.95
2019-02-19T21:13:41.852Z,6.67
2019-02-19T21:16:28.265Z,7.53
2019-02-19T21:19:14.649Z,5.45
2019-02-19T21:22:00.935Z,5.37
2019-02-19T21:24:46.911Z,2.42
2019-02-19T21:27:34.498Z,7.53
2019-02-19T21:30:20.754Z,5.90
2019-02-19T21:33:07.023Z,3.50
2019-02-19T21:35:57.639Z,6.62
2019-02-19T21:38:41.228Z,5.85
2019-02-19T21:41:27.724Z,5.72
2019-02-19T21:44:14.260Z,3.92
2019-02-19T21:47:00.600Z,7.00
2019-02-19T21:49:46.816Z,3.90
2019-02-19T21:52:33.219Z,4.20
2019-02-19T21:55:19.439Z,3.40
2019-02-19T21:58:05.875Z,3.20
2019-02-19T22:00:52.196Z,3.70
2019-02-19T22:03:39.825Z,3.55
2019-02-19T22:06:25.772Z,3.35
2019-02-19T22:09:12.076Z,4.47
2019-02-19T22:11:59.856Z,3.95
2019-02-19T22:14:46.275Z,4.15
2019-02-19T22:17:32.531Z,5.28
2019-02-19T22:20:50.108Z,3.98
2019-02-19T22:23:36.699Z,3.90
2019-02-19T22:26:23.065Z,3.42
2019-02-19T22:29:09.392Z,4.03
2019-02-19T22:31:55.448Z,3.37
2019-02-19T22:34:41.572Z,4.60
2019-02-19T22:37:27.660Z,3.20
2019-02-19T22:40:14.207Z,4.55
2019-02-19T22:43:00.375Z,3.30
2019-02-19T22:45:46.762Z,3.20
2019-02-19T22:48:33.220Z,3.22
2019-02-19T22:51:19.615Z,4.17
2019-02-19T22:54:13.044Z,3.30
2019-02-19T22:56:59.019Z,4.87
2019-02-19T22:59:45.458Z,3.55
2019-02-19T23:02:32.111Z,2.67
2019-02-19T23:05:18.115Z,3.08
2019-02-19T23:08:04.415Z,3.30
2019-02-19T23:10:50.715Z,3.87
2019-02-19T23:13:38.538Z,3.45
2019-02-19T23:16:25.059Z,3.27
2019-02-19T23:19:11.326Z,4.33
2019-02-19T23:21:57.299Z,4.30
2019-02-19T23:24:43.547Z,5.17
2019-02-19T23:27:30.493Z,3.25
2019-02-19T23:30:16.798Z,4.53
2019-02-19T23:33:03.179Z,2.95
2019-02-19T23:36:00.411Z,3.02
2019-02-19T23:38:46.387Z,3.30
2019-02-19T23:41:32.683Z,3.00
2019-02-19T23:44:18.777Z,4.42
2019-02-19T23:47:05.040Z,4.60
2019-02-19T23:49:50.940Z,3.45
2019-02-19T23:52:37.213Z,1.80
2019-02-19T23:55:23.467Z,2.90
2019-02-19T23:58:09.828Z,3.02
